Home, Pennsylvania
Current Conditions -  °F | °C
As of 3:35 PM on Monday 22 Dec 2014 (Local Time) from KIDI Reporting Station
Few Clouds Few Clouds  
Wind Chill: 30°   Ceiling: Unl
Heat Index: 37°   Visibility: 9mi
Dew Point: 28°   Wind: 12mph
Humidity: 70%   Direction: 110°ESE
Pressure: 30.07"   Gusts: NA
Location:  40.74°N, 79.11°W
Report Text: KIDI 222035Z AUTO 11010KT 9SM FEW080 03/M02 A3007 RMK A01
Loading
Personal Weather Stations






























Interactive Weather Map New forecast layout! Learn more

10-Day Weather Forecast

Advertisements
Track Severe Weather on mobile